sensor_id;sensor_type;location;lat;lon;timestamp;temperature;humidity
7658;DHT22;8462;53.156;8.220;2023-07-28T00:00:58;20.40;99.90
7658;DHT22;8462;53.156;8.220;2023-07-28T00:03:26;20.30;99.90
7658;DHT22;8462;53.156;8.220;2023-07-28T00:05:53;20.30;99.90
7658;DHT22;8462;53.156;8.220;2023-07-28T00:08:20;20.30;99.90
7658;DHT22;8462;53.156;8.220;2023-07-28T00:10:47;20.30;99.90
7658;DHT22;8462;53.156;8.220;2023-07-28T00:13:14;20.30;99.90
7658;DHT22;8462;53.156;8.220;2023-07-28T00:15:40;20.30;99.90
7658;DHT22;8462;53.156;8.220;2023-07-28T00:18:07;20.40;99.90
7658;DHT22;8462;53.156;8.220;2023-07-28T00:20:36;20.40;99.90
7658;DHT22;8462;53.156;8.220;2023-07-28T00:23:02;20.40;99.90
7658;DHT22;8462;53.156;8.220;2023-07-28T00:25:29;20.40;99.90
7658;DHT22;8462;53.156;8.220;2023-07-28T00:27:56;20.40;99.90
7658;DHT22;8462;53.156;8.220;2023-07-28T00:30:23;20.40;99.90
7658;DHT22;8462;53.156;8.220;2023-07-28T00:32:51;20.50;99.90
7658;DHT22;8462;53.156;8.220;2023-07-28T00:35:18;20.50;99.90
7658;DHT22;8462;53.156;8.220;2023-07-28T00:37:46;20.50;99.90
7658;DHT22;8462;53.156;8.220;2023-07-28T00:40:13;20.50;99.90
7658;DHT22;8462;53.156;8.220;2023-07-28T00:42:40;20.50;99.90
7658;DHT22;8462;53.156;8.220;2023-07-28T00:45:07;20.50;99.90
7658;DHT22;8462;53.156;8.220;2023-07-28T00:47:35;20.50;99.90
7658;DHT22;8462;53.156;8.220;2023-07-28T00:50:02;20.50;99.90
7658;DHT22;8462;53.156;8.220;2023-07-28T00:52:29;20.50;99.90
7658;DHT22;8462;53.156;8.220;2023-07-28T00:54:58;20.50;99.90
7658;DHT22;8462;53.156;8.220;2023-07-28T00:57:25;20.50;99.90
7658;DHT22;8462;53.156;8.220;2023-07-28T00:59:51;20.50;99.90
7658;DHT22;8462;53.156;8.220;2023-07-28T01:02:19;20.50;99.90
7658;DHT22;8462;53.156;8.220;2023-07-28T01:04:47;20.50;99.90
7658;DHT22;8462;53.156;8.220;2023-07-28T01:07:17;20.40;99.90
7658;DHT22;8462;53.156;8.220;2023-07-28T01:09:53;20.40;99.90
7658;DHT22;8462;53.156;8.220;2023-07-28T01:12:24;20.40;99.90
7658;DHT22;8462;53.156;8.220;2023-07-28T01:14:50;20.40;99.90
7658;DHT22;8462;53.156;8.220;2023-07-28T01:17:17;20.40;99.90
7658;DHT22;8462;53.156;8.220;2023-07-28T01:19:45;20.50;99.90
7658;DHT22;8462;53.156;8.220;2023-07-28T01:22:30;20.50;99.90
7658;DHT22;8462;53.156;8.220;2023-07-28T01:25:06;20.50;99.90
7658;DHT22;8462;53.156;8.220;2023-07-28T01:27:39;20.50;99.90
7658;DHT22;8462;53.156;8.220;2023-07-28T01:30:08;20.50;99.90
7658;DHT22;8462;53.156;8.220;2023-07-28T01:32:35;20.50;99.90
7658;DHT22;8462;53.156;8.220;2023-07-28T01:35:03;20.50;99.90
7658;DHT22;8462;53.156;8.220;2023-07-28T01:37:30;20.50;99.90
7658;DHT22;8462;53.156;8.220;2023-07-28T01:39:56;20.60;99.90
7658;DHT22;8462;53.156;8.220;2023-07-28T01:42:24;20.60;99.90
7658;DHT22;8462;53.156;8.220;2023-07-28T01:44:52;20.50;99.90
7658;DHT22;8462;53.156;8.220;2023-07-28T01:47:19;20.50;99.90
7658;DHT22;8462;53.156;8.220;2023-07-28T01:49:45;20.50;99.90
7658;DHT22;8462;53.156;8.220;2023-07-28T01:52:13;20.50;99.90
7658;DHT22;8462;53.156;8.220;2023-07-28T01:54:40;20.40;99.90
7658;DHT22;8462;53.156;8.220;2023-07-28T01:57:07;20.40;99.90
7658;DHT22;8462;53.156;8.220;2023-07-28T01:59:34;20.40;99.90
7658;DHT22;8462;53.156;8.220;2023-07-28T02:02:02;20.40;99.90
7658;DHT22;8462;53.156;8.220;2023-07-28T02:04:29;20.30;99.90
7658;DHT22;8462;53.156;8.220;2023-07-28T02:06:56;20.30;99.90
7658;DHT22;8462;53.156;8.220;2023-07-28T02:09:23;20.30;99.90
7658;DHT22;8462;53.156;8.220;2023-07-28T02:11:50;20.20;99.90
7658;DHT22;8462;53.156;8.220;2023-07-28T02:14:16;20.20;99.90
7658;DHT22;8462;53.156;8.220;2023-07-28T02:16:43;20.10;99.90
7658;DHT22;8462;53.156;8.220;2023-07-28T02:19:12;20.10;99.90
7658;DHT22;8462;53.156;8.220;2023-07-28T02:21:38;20.10;99.90
7658;DHT22;8462;53.156;8.220;2023-07-28T02:24:05;20.10;99.90
7658;DHT22;8462;53.156;8.220;2023-07-28T02:26:32;20.10;99.90
7658;DHT22;8462;53.156;8.220;2023-07-28T02:28:59;20.00;99.90
7658;DHT22;8462;53.156;8.220;2023-07-28T02:31:26;20.00;99.90
7658;DHT22;8462;53.156;8.220;2023-07-28T02:33:53;20.00;99.90
7658;DHT22;8462;53.156;8.220;2023-07-28T02:36:21;20.00;99.90
7658;DHT22;8462;53.156;8.220;2023-07-28T02:38:48;20.00;99.90
7658;DHT22;8462;53.156;8.220;2023-07-28T02:41:15;20.10;99.90
7658;DHT22;8462;53.156;8.220;2023-07-28T02:43:42;20.10;99.90
7658;DHT22;8462;53.156;8.220;2023-07-28T02:46:09;20.10;99.90
7658;DHT22;8462;53.156;8.220;2023-07-28T02:48:36;20.10;99.90
7658;DHT22;8462;53.156;8.220;2023-07-28T02:51:03;20.20;99.90
7658;DHT22;8462;53.156;8.220;2023-07-28T02:53:31;20.20;99.90
7658;DHT22;8462;53.156;8.220;2023-07-28T02:55:58;20.20;99.90
7658;DHT22;8462;53.156;8.220;2023-07-28T02:58:25;20.20;99.90
7658;DHT22;8462;53.156;8.220;2023-07-28T03:00:52;20.20;99.90
7658;DHT22;8462;53.156;8.220;2023-07-28T03:03:28;20.20;99.90
7658;DHT22;8462;53.156;8.220;2023-07-28T03:05:56;20.20;99.90
7658;DHT22;8462;53.156;8.220;2023-07-28T03:08:26;20.30;99.90
7658;DHT22;8462;53.156;8.220;2023-07-28T03:11:06;20.30;99.90
7658;DHT22;8462;53.156;8.220;2023-07-28T03:13:33;20.30;99.90
7658;DHT22;8462;53.156;8.220;2023-07-28T03:16:00;20.30;99.90
7658;DHT22;8462;53.156;8.220;2023-07-28T03:18:26;20.30;99.90
7658;DHT22;8462;53.156;8.220;2023-07-28T03:20:53;20.30;99.90
7658;DHT22;8462;53.156;8.220;2023-07-28T03:23:20;20.30;99.90
7658;DHT22;8462;53.156;8.220;2023-07-28T03:25:47;20.30;99.90
7658;DHT22;8462;53.156;8.220;2023-07-28T03:28:15;20.30;99.90
7658;DHT22;8462;53.156;8.220;2023-07-28T03:30:42;20.30;99.90
7658;DHT22;8462;53.156;8.220;2023-07-28T03:33:09;20.30;99.90
7658;DHT22;8462;53.156;8.220;2023-07-28T03:35:36;20.40;99.90
7658;DHT22;8462;53.156;8.220;2023-07-28T03:38:07;20.40;99.90
7658;DHT22;8462;53.156;8.220;2023-07-28T03:40:34;20.40;99.90
7658;DHT22;8462;53.156;8.220;2023-07-28T03:43:02;20.40;99.90
7658;DHT22;8462;53.156;8.220;2023-07-28T03:45:30;20.40;99.90
7658;DHT22;8462;53.156;8.220;2023-07-28T03:47:57;20.40;99.90
7658;DHT22;8462;53.156;8.220;2023-07-28T03:50:24;20.40;99.90
7658;DHT22;8462;53.156;8.220;2023-07-28T03:52:52;20.50;99.90
7658;DHT22;8462;53.156;8.220;2023-07-28T03:55:18;20.50;99.90
7658;DHT22;8462;53.156;8.220;2023-07-28T03:57:45;20.50;99.90
7658;DHT22;8462;53.156;8.220;2023-07-28T04:00:13;20.50;99.90
7658;DHT22;8462;53.156;8.220;2023-07-28T04:02:41;20.50;99.90
7658;DHT22;8462;53.156;8.220;2023-07-28T04:05:08;20.50;99.90
7658;DHT22;8462;53.156;8.220;2023-07-28T04:07:35;20.50;99.90
7658;DHT22;8462;53.156;8.220;2023-07-28T04:10:02;20.50;99.90
7658;DHT22;8462;53.156;8.220;2023-07-28T04:12:29;20.50;99.90
7658;DHT22;8462;53.156;8.220;2023-07-28T04:14:56;20.50;99.90
7658;DHT22;8462;53.156;8.220;2023-07-28T04:17:23;20.50;99.90
7658;DHT22;8462;53.156;8.220;2023-07-28T04:19:51;20.50;99.90
7658;DHT22;8462;53.156;8.220;2023-07-28T04:22:18;20.60;99.90
7658;DHT22;8462;53.156;8.220;2023-07-28T04:24:48;20.60;99.90
7658;DHT22;8462;53.156;8.220;2023-07-28T04:27:15;20.70;99.90
7658;DHT22;8462;53.156;8.220;2023-07-28T04:29:43;20.70;99.90
7658;DHT22;8462;53.156;8.220;2023-07-28T04:32:11;20.70;99.90
7658;DHT22;8462;53.156;8.220;2023-07-28T04:34:38;20.70;99.90
7658;DHT22;8462;53.156;8.220;2023-07-28T04:37:11;20.70;99.90
7658;DHT22;8462;53.156;8.220;2023-07-28T04:39:59;20.80;99.90
7658;DHT22;8462;53.156;8.220;2023-07-28T04:42:31;20.80;99.90
7658;DHT22;8462;53.156;8.220;2023-07-28T04:44:58;20.80;99.90
7658;DHT22;8462;53.156;8.220;2023-07-28T04:47:25;20.80;99.90
7658;DHT22;8462;53.156;8.220;2023-07-28T04:49:52;20.80;99.90
7658;DHT22;8462;53.156;8.220;2023-07-28T04:52:43;20.80;99.90
7658;DHT22;8462;53.156;8.220;2023-07-28T04:55:33;20.90;99.90
7658;DHT22;8462;53.156;8.220;2023-07-28T04:58:00;20.90;99.90
7658;DHT22;8462;53.156;8.220;2023-07-28T05:00:36;20.80;99.90
7658;DHT22;8462;53.156;8.220;2023-07-28T05:03:04;20.80;99.90
7658;DHT22;8462;53.156;8.220;2023-07-28T05:05:36;20.80;99.90
7658;DHT22;8462;53.156;8.220;2023-07-28T05:08:06;20.90;99.90
7658;DHT22;8462;53.156;8.220;2023-07-28T05:10:34;20.90;99.90
7658;DHT22;8462;53.156;8.220;2023-07-28T05:13:01;20.90;99.90
7658;DHT22;8462;53.156;8.220;2023-07-28T05:15:30;20.90;99.90
7658;DHT22;8462;53.156;8.220;2023-07-28T05:17:57;21.00;99.90
7658;DHT22;8462;53.156;8.220;2023-07-28T05:20:44;21.00;99.90
7658;DHT22;8462;53.156;8.220;2023-07-28T05:23:14;20.90;99.90
7658;DHT22;8462;53.156;8.220;2023-07-28T05:25:42;21.00;99.90
7658;DHT22;8462;53.156;8.220;2023-07-28T05:28:09;21.00;99.90
7658;DHT22;8462;53.156;8.220;2023-07-28T05:30:39;21.10;99.90
7658;DHT22;8462;53.156;8.220;2023-07-28T05:33:06;21.10;99.90
7658;DHT22;8462;53.156;8.220;2023-07-28T05:35:46;21.20;99.90
7658;DHT22;8462;53.156;8.220;2023-07-28T05:38:15;21.20;99.90
7658;DHT22;8462;53.156;8.220;2023-07-28T05:40:42;21.30;99.90
7658;DHT22;8462;53.156;8.220;2023-07-28T05:43:09;21.30;99.90
7658;DHT22;8462;53.156;8.220;2023-07-28T05:45:36;21.30;99.90
7658;DHT22;8462;53.156;8.220;2023-07-28T05:48:04;21.40;99.90
7658;DHT22;8462;53.156;8.220;2023-07-28T05:50:32;21.50;99.90
7658;DHT22;8462;53.156;8.220;2023-07-28T05:52:59;21.50;99.90
7658;DHT22;8462;53.156;8.220;2023-07-28T05:55:27;21.50;99.90
7658;DHT22;8462;53.156;8.220;2023-07-28T05:57:54;21.60;99.90
7658;DHT22;8462;53.156;8.220;2023-07-28T06:00:21;21.50;99.90
7658;DHT22;8462;53.156;8.220;2023-07-28T06:02:48;21.50;99.90
7658;DHT22;8462;53.156;8.220;2023-07-28T06:05:32;21.50;99.90
7658;DHT22;8462;53.156;8.220;2023-07-28T06:07:59;21.50;99.90
7658;DHT22;8462;53.156;8.220;2023-07-28T06:10:27;21.50;99.90
7658;DHT22;8462;53.156;8.220;2023-07-28T06:12:54;21.60;99.90
7658;DHT22;8462;53.156;8.220;2023-07-28T06:15:21;21.60;99.90
7658;DHT22;8462;53.156;8.220;2023-07-28T06:17:48;21.60;99.90
7658;DHT22;8462;53.156;8.220;2023-07-28T06:20:15;21.60;99.90
7658;DHT22;8462;53.156;8.220;2023-07-28T06:22:42;21.60;99.90
7658;DHT22;8462;53.156;8.220;2023-07-28T06:25:09;21.60;99.90
7658;DHT22;8462;53.156;8.220;2023-07-28T06:27:37;21.60;99.90
7658;DHT22;8462;53.156;8.220;2023-07-28T06:30:06;21.60;99.90
7658;DHT22;8462;53.156;8.220;2023-07-28T06:32:34;21.50;99.90
7658;DHT22;8462;53.156;8.220;2023-07-28T06:35:01;21.50;99.90
7658;DHT22;8462;53.156;8.220;2023-07-28T06:37:28;21.50;99.90
7658;DHT22;8462;53.156;8.220;2023-07-28T06:39:55;21.50;99.90
7658;DHT22;8462;53.156;8.220;2023-07-28T06:42:22;21.50;99.90
7658;DHT22;8462;53.156;8.220;2023-07-28T06:44:56;21.50;99.90
7658;DHT22;8462;53.156;8.220;2023-07-28T06:47:23;21.50;99.90
7658;DHT22;8462;53.156;8.220;2023-07-28T06:49:50;21.60;99.90
7658;DHT22;8462;53.156;8.220;2023-07-28T06:52:17;21.60;99.90
7658;DHT22;8462;53.156;8.220;2023-07-28T06:54:44;21.60;99.90
7658;DHT22;8462;53.156;8.220;2023-07-28T06:57:12;21.60;99.90
7658;DHT22;8462;53.156;8.220;2023-07-28T06:59:39;21.60;99.90
7658;DHT22;8462;53.156;8.220;2023-07-28T07:02:08;21.60;99.90
7658;DHT22;8462;53.156;8.220;2023-07-28T07:04:35;21.60;99.90
7658;DHT22;8462;53.156;8.220;2023-07-28T07:07:02;21.70;99.90
7658;DHT22;8462;53.156;8.220;2023-07-28T07:09:29;21.70;99.90
7658;DHT22;8462;53.156;8.220;2023-07-28T07:11:56;21.70;99.90
7658;DHT22;8462;53.156;8.220;2023-07-28T07:14:23;21.70;99.90
7658;DHT22;8462;53.156;8.220;2023-07-28T07:16:50;21.70;99.90
7658;DHT22;8462;53.156;8.220;2023-07-28T07:19:18;21.80;99.90
7658;DHT22;8462;53.156;8.220;2023-07-28T07:21:45;21.80;99.90
7658;DHT22;8462;53.156;8.220;2023-07-28T07:24:13;21.90;99.90
7658;DHT22;8462;53.156;8.220;2023-07-28T07:26:40;22.10;99.90
7658;DHT22;8462;53.156;8.220;2023-07-28T07:29:07;22.20;99.90
7658;DHT22;8462;53.156;8.220;2023-07-28T07:31:35;22.30;99.90
7658;DHT22;8462;53.156;8.220;2023-07-28T07:34:02;22.40;99.90
7658;DHT22;8462;53.156;8.220;2023-07-28T07:36:31;22.50;99.90
7658;DHT22;8462;53.156;8.220;2023-07-28T07:38:59;22.50;99.90
7658;DHT22;8462;53.156;8.220;2023-07-28T07:41:26;22.50;99.90
7658;DHT22;8462;53.156;8.220;2023-07-28T07:43:53;22.60;99.90
7658;DHT22;8462;53.156;8.220;2023-07-28T07:46:22;22.60;99.90
7658;DHT22;8462;53.156;8.220;2023-07-28T07:48:49;22.60;99.90
7658;DHT22;8462;53.156;8.220;2023-07-28T07:51:17;22.60;99.90
7658;DHT22;8462;53.156;8.220;2023-07-28T07:53:45;22.60;99.90
7658;DHT22;8462;53.156;8.220;2023-07-28T07:56:13;22.60;99.90
7658;DHT22;8462;53.156;8.220;2023-07-28T07:58:40;22.60;99.90
7658;DHT22;8462;53.156;8.220;2023-07-28T08:01:07;22.60;99.90
7658;DHT22;8462;53.156;8.220;2023-07-28T08:03:34;22.60;99.90
7658;DHT22;8462;53.156;8.220;2023-07-28T08:06:03;22.60;99.90
7658;DHT22;8462;53.156;8.220;2023-07-28T08:08:31;22.60;99.90
7658;DHT22;8462;53.156;8.220;2023-07-28T08:10:59;22.70;99.90
7658;DHT22;8462;53.156;8.220;2023-07-28T08:13:26;22.70;99.90
7658;DHT22;8462;53.156;8.220;2023-07-28T08:15:54;23.00;99.90
7658;DHT22;8462;53.156;8.220;2023-07-28T08:18:21;23.10;99.90
7658;DHT22;8462;53.156;8.220;2023-07-28T08:20:48;23.10;99.90
7658;DHT22;8462;53.156;8.220;2023-07-28T08:23:15;23.10;99.90
7658;DHT22;8462;53.156;8.220;2023-07-28T08:25:42;23.10;99.90
7658;DHT22;8462;53.156;8.220;2023-07-28T08:28:10;23.20;99.90
7658;DHT22;8462;53.156;8.220;2023-07-28T08:30:37;23.30;99.90
7658;DHT22;8462;53.156;8.220;2023-07-28T08:33:04;23.20;99.90
7658;DHT22;8462;53.156;8.220;2023-07-28T08:35:32;23.30;99.90
7658;DHT22;8462;53.156;8.220;2023-07-28T08:37:59;23.30;99.90
7658;DHT22;8462;53.156;8.220;2023-07-28T08:40:26;23.40;99.90
7658;DHT22;8462;53.156;8.220;2023-07-28T08:42:54;23.50;99.90
7658;DHT22;8462;53.156;8.220;2023-07-28T08:45:22;23.60;99.90
7658;DHT22;8462;53.156;8.220;2023-07-28T08:47:50;24.00;99.90
7658;DHT22;8462;53.156;8.220;2023-07-28T08:50:17;24.40;99.90
7658;DHT22;8462;53.156;8.220;2023-07-28T08:52:44;24.60;99.90
7658;DHT22;8462;53.156;8.220;2023-07-28T08:55:11;24.60;99.90
7658;DHT22;8462;53.156;8.220;2023-07-28T08:57:41;24.40;99.90
7658;DHT22;8462;53.156;8.220;2023-07-28T09:00:09;24.30;99.90
7658;DHT22;8462;53.156;8.220;2023-07-28T09:02:40;24.10;99.90
7658;DHT22;8462;53.156;8.220;2023-07-28T09:05:09;24.20;99.90
7658;DHT22;8462;53.156;8.220;2023-07-28T09:07:43;24.20;99.90
7658;DHT22;8462;53.156;8.220;2023-07-28T09:10:10;24.10;99.90
7658;DHT22;8462;53.156;8.220;2023-07-28T09:12:44;24.10;99.90
7658;DHT22;8462;53.156;8.220;2023-07-28T09:15:11;24.40;99.90
7658;DHT22;8462;53.156;8.220;2023-07-28T09:17:43;24.70;99.90
7658;DHT22;8462;53.156;8.220;2023-07-28T09:20:13;25.00;99.90
7658;DHT22;8462;53.156;8.220;2023-07-28T09:22:42;25.30;99.90
7658;DHT22;8462;53.156;8.220;2023-07-28T09:25:13;25.90;99.90
7658;DHT22;8462;53.156;8.220;2023-07-28T09:27:41;26.40;98.50
7658;DHT22;8462;53.156;8.220;2023-07-28T09:30:16;26.50;97.60
7658;DHT22;8462;53.156;8.220;2023-07-28T09:32:48;26.50;96.70
7658;DHT22;8462;53.156;8.220;2023-07-28T09:35:17;26.40;96.50
7658;DHT22;8462;53.156;8.220;2023-07-28T09:37:46;26.10;95.80
7658;DHT22;8462;53.156;8.220;2023-07-28T09:40:16;25.80;96.60
7658;DHT22;8462;53.156;8.220;2023-07-28T09:42:45;25.70;97.60
7658;DHT22;8462;53.156;8.220;2023-07-28T09:45:15;25.80;98.00
7658;DHT22;8462;53.156;8.220;2023-07-28T09:47:44;25.80;97.60
7658;DHT22;8462;53.156;8.220;2023-07-28T09:50:15;25.80;97.40
7658;DHT22;8462;53.156;8.220;2023-07-28T09:52:43;25.80;97.30
7658;DHT22;8462;53.156;8.220;2023-07-28T09:55:12;25.70;97.40
7658;DHT22;8462;53.156;8.220;2023-07-28T09:57:43;25.60;97.60
7658;DHT22;8462;53.156;8.220;2023-07-28T10:00:12;25.40;97.70
7658;DHT22;8462;53.156;8.220;2023-07-28T10:02:40;25.20;97.60
7658;DHT22;8462;53.156;8.220;2023-07-28T10:05:07;24.90;97.50
7658;DHT22;8462;53.156;8.220;2023-07-28T10:07:39;24.70;97.80
7658;DHT22;8462;53.156;8.220;2023-07-28T10:10:10;24.60;98.00
7658;DHT22;8462;53.156;8.220;2023-07-28T10:12:41;24.60;98.30
7658;DHT22;8462;53.156;8.220;2023-07-28T10:15:12;24.60;98.40
7658;DHT22;8462;53.156;8.220;2023-07-28T10:17:44;24.70;98.60
7658;DHT22;8462;53.156;8.220;2023-07-28T10:20:37;24.80;98.00
7658;DHT22;8462;53.156;8.220;2023-07-28T10:23:10;25.00;96.80
7658;DHT22;8462;53.156;8.220;2023-07-28T10:25:38;25.20;97.40
7658;DHT22;8462;53.156;8.220;2023-07-28T10:28:07;25.50;97.10
7658;DHT22;8462;53.156;8.220;2023-07-28T10:30:36;25.80;96.40
7658;DHT22;8462;53.156;8.220;2023-07-28T10:33:04;25.90;95.60
7658;DHT22;8462;53.156;8.220;2023-07-28T10:35:31;26.00;95.10
7658;DHT22;8462;53.156;8.220;2023-07-28T10:38:34;26.20;94.70
7658;DHT22;8462;53.156;8.220;2023-07-28T10:41:10;26.40;93.80
7658;DHT22;8462;53.156;8.220;2023-07-28T10:43:38;26.90;94.20
7658;DHT22;8462;53.156;8.220;2023-07-28T10:46:07;27.30;93.00
7658;DHT22;8462;53.156;8.220;2023-07-28T10:48:35;27.40;92.70
7658;DHT22;8462;53.156;8.220;2023-07-28T10:51:04;27.50;92.70
7658;DHT22;8462;53.156;8.220;2023-07-28T10:53:33;27.80;92.10
7658;DHT22;8462;53.156;8.220;2023-07-28T10:56:02;28.00;92.30
7658;DHT22;8462;53.156;8.220;2023-07-28T10:58:31;28.10;91.00
7658;DHT22;8462;53.156;8.220;2023-07-28T11:01:00;28.10;91.10
7658;DHT22;8462;53.156;8.220;2023-07-28T11:03:30;28.00;91.10
7658;DHT22;8462;53.156;8.220;2023-07-28T11:05:57;27.90;91.20
7658;DHT22;8462;53.156;8.220;2023-07-28T11:08:25;27.90;91.50
7658;DHT22;8462;53.156;8.220;2023-07-28T11:10:53;27.80;91.40
7658;DHT22;8462;53.156;8.220;2023-07-28T11:13:22;27.70;91.20
7658;DHT22;8462;53.156;8.220;2023-07-28T11:15:51;27.50;91.10
7658;DHT22;8462;53.156;8.220;2023-07-28T11:18:19;27.30;91.50
7658;DHT22;8462;53.156;8.220;2023-07-28T11:20:47;27.10;92.00
7658;DHT22;8462;53.156;8.220;2023-07-28T11:23:14;26.90;92.40
7658;DHT22;8462;53.156;8.220;2023-07-28T11:25:44;26.70;92.40
7658;DHT22;8462;53.156;8.220;2023-07-28T11:28:14;26.50;92.60
7658;DHT22;8462;53.156;8.220;2023-07-28T11:30:43;26.30;93.00
7658;DHT22;8462;53.156;8.220;2023-07-28T11:33:10;26.20;93.50
7658;DHT22;8462;53.156;8.220;2023-07-28T11:35:39;26.20;93.70
7658;DHT22;8462;53.156;8.220;2023-07-28T11:38:07;26.20;93.90
7658;DHT22;8462;53.156;8.220;2023-07-28T11:40:35;26.20;93.80
7658;DHT22;8462;53.156;8.220;2023-07-28T11:43:03;26.30;93.60
7658;DHT22;8462;53.156;8.220;2023-07-28T11:45:34;26.30;93.40
7658;DHT22;8462;53.156;8.220;2023-07-28T11:48:03;26.20;93.40
7658;DHT22;8462;53.156;8.220;2023-07-28T11:50:37;26.10;93.50
7658;DHT22;8462;53.156;8.220;2023-07-28T11:53:08;26.00;93.80
7658;DHT22;8462;53.156;8.220;2023-07-28T11:55:37;26.00;93.60
7658;DHT22;8462;53.156;8.220;2023-07-28T11:58:06;25.90;93.60
7658;DHT22;8462;53.156;8.220;2023-07-28T12:00:37;25.90;94.10
7658;DHT22;8462;53.156;8.220;2023-07-28T12:03:06;26.10;94.00
7658;DHT22;8462;53.156;8.220;2023-07-28T12:05:35;26.30;94.10
7658;DHT22;8462;53.156;8.220;2023-07-28T12:08:03;26.50;93.70
7658;DHT22;8462;53.156;8.220;2023-07-28T12:10:30;26.70;93.30
7658;DHT22;8462;53.156;8.220;2023-07-28T12:13:03;26.90;92.60
7658;DHT22;8462;53.156;8.220;2023-07-28T12:15:30;27.10;92.60
7658;DHT22;8462;53.156;8.220;2023-07-28T12:18:08;27.20;92.60
7658;DHT22;8462;53.156;8.220;2023-07-28T12:20:39;27.20;92.30
7658;DHT22;8462;53.156;8.220;2023-07-28T12:23:09;27.20;92.70
7658;DHT22;8462;53.156;8.220;2023-07-28T12:25:36;27.30;92.60
7658;DHT22;8462;53.156;8.220;2023-07-28T12:28:04;27.30;91.90
7658;DHT22;8462;53.156;8.220;2023-07-28T12:30:31;27.20;91.70
7658;DHT22;8462;53.156;8.220;2023-07-28T12:32:59;27.20;91.90
7658;DHT22;8462;53.156;8.220;2023-07-28T12:35:29;27.20;91.60
7658;DHT22;8462;53.156;8.220;2023-07-28T12:37:58;27.20;91.80
7658;DHT22;8462;53.156;8.220;2023-07-28T12:40:27;27.30;91.60
7658;DHT22;8462;53.156;8.220;2023-07-28T12:42:55;27.40;92.10
7658;DHT22;8462;53.156;8.220;2023-07-28T12:45:22;27.40;91.90
7658;DHT22;8462;53.156;8.220;2023-07-28T12:47:51;27.20;91.50
7658;DHT22;8462;53.156;8.220;2023-07-28T12:50:20;27.00;91.90
7658;DHT22;8462;53.156;8.220;2023-07-28T12:52:49;27.10;92.50
7658;DHT22;8462;53.156;8.220;2023-07-28T12:55:16;27.10;92.20
7658;DHT22;8462;53.156;8.220;2023-07-28T12:57:43;27.20;91.70
7658;DHT22;8462;53.156;8.220;2023-07-28T13:00:11;27.30;91.50
7658;DHT22;8462;53.156;8.220;2023-07-28T13:02:40;27.40;91.40
7658;DHT22;8462;53.156;8.220;2023-07-28T13:05:10;27.40;91.30
7658;DHT22;8462;53.156;8.220;2023-07-28T13:07:38;27.50;91.40
7658;DHT22;8462;53.156;8.220;2023-07-28T13:10:08;27.80;91.00
7658;DHT22;8462;53.156;8.220;2023-07-28T13:12:36;28.00;90.40
7658;DHT22;8462;53.156;8.220;2023-07-28T13:15:04;28.10;89.30
7658;DHT22;8462;53.156;8.220;2023-07-28T13:17:32;28.20;89.60
7658;DHT22;8462;53.156;8.220;2023-07-28T13:19:59;28.10;88.90
7658;DHT22;8462;53.156;8.220;2023-07-28T13:22:29;28.10;88.10
7658;DHT22;8462;53.156;8.220;2023-07-28T13:24:57;28.00;87.80
7658;DHT22;8462;53.156;8.220;2023-07-28T13:27:25;27.90;89.00
7658;DHT22;8462;53.156;8.220;2023-07-28T13:29:52;27.90;89.80
7658;DHT22;8462;53.156;8.220;2023-07-28T13:32:25;27.80;88.70
7658;DHT22;8462;53.156;8.220;2023-07-28T13:34:53;27.60;89.40
7658;DHT22;8462;53.156;8.220;2023-07-28T13:37:20;27.50;89.60
7658;DHT22;8462;53.156;8.220;2023-07-28T13:39:47;27.50;90.00
7658;DHT22;8462;53.156;8.220;2023-07-28T13:42:14;27.60;90.10
7658;DHT22;8462;53.156;8.220;2023-07-28T13:44:43;27.60;89.60
7658;DHT22;8462;53.156;8.220;2023-07-28T13:47:10;27.80;89.50
7658;DHT22;8462;53.156;8.220;2023-07-28T13:49:37;27.70;88.70
7658;DHT22;8462;53.156;8.220;2023-07-28T13:52:05;27.70;89.40
7658;DHT22;8462;53.156;8.220;2023-07-28T13:54:32;27.80;89.20
7658;DHT22;8462;53.156;8.220;2023-07-28T13:57:00;27.90;89.50
7658;DHT22;8462;53.156;8.220;2023-07-28T13:59:30;27.90;89.30
7658;DHT22;8462;53.156;8.220;2023-07-28T14:01:58;27.90;88.40
7658;DHT22;8462;53.156;8.220;2023-07-28T14:04:25;27.80;89.00
7658;DHT22;8462;53.156;8.220;2023-07-28T14:06:52;27.80;88.50
7658;DHT22;8462;53.156;8.220;2023-07-28T14:09:20;27.80;89.60
7658;DHT22;8462;53.156;8.220;2023-07-28T14:11:47;27.90;89.40
7658;DHT22;8462;53.156;8.220;2023-07-28T14:14:14;28.00;88.00
7658;DHT22;8462;53.156;8.220;2023-07-28T14:16:43;28.00;87.70
7658;DHT22;8462;53.156;8.220;2023-07-28T14:19:12;28.00;87.40
7658;DHT22;8462;53.156;8.220;2023-07-28T14:21:40;27.90;87.40
7658;DHT22;8462;53.156;8.220;2023-07-28T14:24:08;27.90;87.10
7658;DHT22;8462;53.156;8.220;2023-07-28T14:26:35;27.80;87.60
7658;DHT22;8462;53.156;8.220;2023-07-28T14:29:02;27.70;88.40
7658;DHT22;8462;53.156;8.220;2023-07-28T14:31:29;27.70;88.40
7658;DHT22;8462;53.156;8.220;2023-07-28T14:33:56;27.70;89.10
7658;DHT22;8462;53.156;8.220;2023-07-28T14:36:24;27.80;88.80
7658;DHT22;8462;53.156;8.220;2023-07-28T14:38:51;27.80;89.10
7658;DHT22;8462;53.156;8.220;2023-07-28T14:41:19;27.80;88.70
7658;DHT22;8462;53.156;8.220;2023-07-28T14:43:46;27.80;88.30
7658;DHT22;8462;53.156;8.220;2023-07-28T14:46:13;27.70;86.80
7658;DHT22;8462;53.156;8.220;2023-07-28T14:48:40;27.50;88.00
7658;DHT22;8462;53.156;8.220;2023-07-28T14:51:07;27.50;88.50
7658;DHT22;8462;53.156;8.220;2023-07-28T14:53:37;27.40;88.10
7658;DHT22;8462;53.156;8.220;2023-07-28T14:56:04;27.50;88.90
7658;DHT22;8462;53.156;8.220;2023-07-28T14:58:32;27.50;89.10
7658;DHT22;8462;53.156;8.220;2023-07-28T15:01:01;27.50;89.00
7658;DHT22;8462;53.156;8.220;2023-07-28T15:03:30;27.50;88.90
7658;DHT22;8462;53.156;8.220;2023-07-28T15:05:57;27.40;89.20
7658;DHT22;8462;53.156;8.220;2023-07-28T15:08:24;27.40;88.90
7658;DHT22;8462;53.156;8.220;2023-07-28T15:10:52;27.40;89.80
7658;DHT22;8462;53.156;8.220;2023-07-28T15:13:21;27.50;90.10
7658;DHT22;8462;53.156;8.220;2023-07-28T15:15:48;27.50;90.50
7658;DHT22;8462;53.156;8.220;2023-07-28T15:18:16;27.60;90.60
7658;DHT22;8462;53.156;8.220;2023-07-28T15:20:43;27.50;90.80
7658;DHT22;8462;53.156;8.220;2023-07-28T15:23:12;27.50;91.00
7658;DHT22;8462;53.156;8.220;2023-07-28T15:25:39;27.40;90.90
7658;DHT22;8462;53.156;8.220;2023-07-28T15:28:10;27.30;91.00
7658;DHT22;8462;53.156;8.220;2023-07-28T15:30:37;27.10;91.10
7658;DHT22;8462;53.156;8.220;2023-07-28T15:33:04;26.90;91.20
7658;DHT22;8462;53.156;8.220;2023-07-28T15:35:31;26.90;91.70
7658;DHT22;8462;53.156;8.220;2023-07-28T15:37:58;26.80;92.10
7658;DHT22;8462;53.156;8.220;2023-07-28T15:40:25;26.80;92.40
7658;DHT22;8462;53.156;8.220;2023-07-28T15:42:52;26.90;92.50
7658;DHT22;8462;53.156;8.220;2023-07-28T15:45:20;26.90;91.90
7658;DHT22;8462;53.156;8.220;2023-07-28T15:47:48;27.00;91.50
7658;DHT22;8462;53.156;8.220;2023-07-28T15:50:17;27.10;91.20
7658;DHT22;8462;53.156;8.220;2023-07-28T15:52:45;27.20;90.80
7658;DHT22;8462;53.156;8.220;2023-07-28T15:55:13;27.10;90.70
7658;DHT22;8462;53.156;8.220;2023-07-28T15:57:41;27.20;90.70
7658;DHT22;8462;53.156;8.220;2023-07-28T16:00:11;27.20;90.80
7658;DHT22;8462;53.156;8.220;2023-07-28T16:02:42;27.20;90.50
7658;DHT22;8462;53.156;8.220;2023-07-28T16:05:09;27.10;90.60
7658;DHT22;8462;53.156;8.220;2023-07-28T16:07:36;27.10;91.00
7658;DHT22;8462;53.156;8.220;2023-07-28T16:10:04;27.10;91.10